Гомель

Карта отелей и гостиниц, располагающихся рядом с аэропортом Гомель :

Гомель Гомельская область 52° 31' 37.2612" N, 31° 1' 0.12" E
Код аэродрома ИКАО
UMGG
Код аэродрома RU
УМГГ
Координаты
N52.52702° E031.01670°
Превышение над уровнем моря
143
Основная полоса
10/28
Курс магнитный
102,8/282,8
Длина основной ВПП
2569
Ширина основной ВПП
43
Покрытие основной ВПП
Твёрдое
Освещение ВПП
Постоянное
Тип: 
Аэродром
Класс аэродрома: 
Международный
Принадлежность: 
ГА
Статус: 
Действующий
Сайт: 
http://www.avia.by/page-843-ru.html
Страна: 
Беларусь
Регион: 
Гомельская область
Дополнительная информация: 
Оператор: Гомельский филиал ГП "Белаэронавигация". Введен в эксплуатацию в 1967 г. В 1993 г. придан статус международного.
Погода: 

Авиационная погода в Гомеле

Регион: 
Погода METAR: 
UMGG 170300Z 03003MPS CAVOK 13/11 Q1007 R10/D NOSIG
Время наблюдения
2021-05-17T03:00:00Z
Температура C
13.0
Точка росы
11.0
Направление ветра
30
Скорость ветра (узлы)
6
Метео видимость
6.21
Явления погоды
Условия полета
VFR
Аэропорт подробнее: 

Найти трансфер

С помощью этой формы Вы можете найти трансфер из аэропорта Гомель в город, аэропорт или вокзал:

Карта места

Javascript is required to view this map.

Погода в аэропортах:

Авиационная погода в аэропорту Бесовец

Регион: 
Погода METAR: 
ULPB 170300Z AUTO VRB01MPS 0150 FG 09/09 Q1013 RMK QBB050 QFE755/1007
Время наблюдения
2021-05-17T03:00:00Z
Температура C
9.0
Точка росы
9.0
Направление ветра
0
Скорость ветра (узлы)
2
Метео видимость
0.09
Явления погоды
FG
Условия полета
Аэропорт подробнее: 

Авиационная погода в Борисполе

Регион: 
Погода METAR: 
UKBB 170300Z 36001MPS 9000 -SHRA SCT040CB 13/12 Q1005 R36R/290050 NOSIG
Время наблюдения
2021-05-17T03:00:00Z
Температура C
13.0
Точка росы
12.0
Направление ветра
360
Скорость ветра (узлы)
2
Метео видимость
5.59
Явления погоды
-SHRA
Условия полета
VFR
Аэропорт подробнее: 

Авиационная погода в Вардё

Регион: 
Погода METAR: 
ENSS 161750Z 13020KT 5000 -SNRA SCT007 BKN010 02/01 Q1013 RMK WIND 500FT 11021KT
Время наблюдения
2021-05-16T17:50:00Z
Температура C
2.0
Точка росы
1.0
Направление ветра
130
Скорость ветра (узлы)
20
Метео видимость
3.11
Явления погоды
-SN -RA
Условия полета
MVFR

Авиационная погода в Киеве

Регион: 
Погода METAR: 
UKKK 170300Z 26001MPS 9999 -SHRA SCT036CB 14/13 Q1005 R26/290352 NOSIG
Время наблюдения
2021-05-17T03:00:00Z
Температура C
14.0
Точка росы
13.0
Направление ветра
260
Скорость ветра (узлы)
2
Метео видимость
6.21
Явления погоды
-SHRA
Условия полета
VFR
Аэропорт подробнее: